createdAt,value
2023-02-15T00:02:16.962Z,80.45
2023-02-15T00:04:58.978Z,85.70
2023-02-15T00:07:47.841Z,86.22
2023-02-15T00:10:36.643Z,83.50
2023-02-15T00:13:25.798Z,85.13
2023-02-15T00:16:17.115Z,90.93
2023-02-15T00:19:01.835Z,101.03
2023-02-15T00:21:44.006Z,89.57
2023-02-15T00:24:34.787Z,78.20
2023-02-15T00:27:23.836Z,84.72
2023-02-15T00:30:06.105Z,80.30
2023-02-15T00:32:56.798Z,83.00
2023-02-15T00:35:39.054Z,71.05
2023-02-15T00:38:27.818Z,81.55
2023-02-15T00:41:12.114Z,78.47
2023-02-15T00:44:00.785Z,76.85
2023-02-15T00:46:44.161Z,76.53
2023-02-15T00:49:32.796Z,80.70
2023-02-15T00:52:15.077Z,82.75
2023-02-15T00:55:04.901Z,84.50
2023-02-15T00:57:47.048Z,85.47
2023-02-15T01:00:35.792Z,83.40
2023-02-15T01:03:24.775Z,86.70
2023-02-15T01:06:07.337Z,82.05
2023-02-15T01:08:55.818Z,84.95
2023-02-15T01:11:45.089Z,85.57
2023-02-15T01:14:27.440Z,84.93
2023-02-15T01:17:15.022Z,94.32
2023-02-15T01:19:57.825Z,89.25
2023-02-15T01:22:40.193Z,88.13
2023-02-15T01:25:28.750Z,86.63
2023-02-15T01:28:18.026Z,82.57
2023-02-15T01:31:00.896Z,87.60
2023-02-15T01:33:50.014Z,78.82
2023-02-15T01:36:32.797Z,72.75
2023-02-15T01:39:21.770Z,82.43
2023-02-15T01:42:05.055Z,88.35
2023-02-15T01:45:07.743Z,80.35
2023-02-15T01:47:57.085Z,76.25
2023-02-15T01:50:49.738Z,82.97
2023-02-15T01:56:47.811Z,79.55
2023-02-15T01:59:32.179Z,83.85
2023-02-15T02:02:23.838Z,76.47
2023-02-15T02:05:14.331Z,85.07
2023-02-15T02:08:06.839Z,87.68
2023-02-15T02:10:49.037Z,89.93
2023-02-15T02:13:37.765Z,99.90
2023-02-15T02:16:35.725Z,85.95
2023-02-15T02:19:49.160Z,101.45
2023-02-15T02:22:55.756Z,100.38
2023-02-15T02:26:09.128Z,95.32
2023-02-15T02:29:34.788Z,99.30
2023-02-15T02:32:16.956Z,106.15
2023-02-15T02:35:23.745Z,100.43
2023-02-15T02:38:37.752Z,108.28
2023-02-15T02:41:26.048Z,100.68
2023-02-15T02:44:27.807Z,116.85
2023-02-15T02:47:39.052Z,106.32
2023-02-15T02:50:34.754Z,102.70
2023-02-15T02:53:25.777Z,118.15
2023-02-15T02:56:41.799Z,106.22
2023-02-15T02:59:39.827Z,104.93
2023-02-15T03:02:38.843Z,111.57
2023-02-15T03:05:34.710Z,100.72
2023-02-15T03:08:23.873Z,102.40
2023-02-15T03:11:15.760Z,108.13
2023-02-15T03:16:51.822Z,103.78
2023-02-15T03:19:38.862Z,114.13
2023-02-15T03:22:35.759Z,88.05
2023-02-15T03:25:35.084Z,100.85
2023-02-15T03:28:30.713Z,105.35
2023-02-15T03:31:23.869Z,92.53
2023-02-15T03:34:15.004Z,110.13
2023-02-15T03:37:22.738Z,94.03
2023-02-15T03:40:36.761Z,89.97
2023-02-15T03:44:01.800Z,89.63
2023-02-15T03:47:00.848Z,102.47
2023-02-15T03:49:58.106Z,98.13
2023-02-15T03:52:46.838Z,137.68
2023-02-15T03:55:29.026Z,109.68
2023-02-15T03:58:35.776Z,118.00
2023-02-15T04:01:59.159Z,95.90
2023-02-15T04:04:55.732Z,119.07
2023-02-15T04:07:38.105Z,91.82
2023-02-15T04:10:44.761Z,114.97
2023-02-15T04:13:53.831Z,116.57
2023-02-15T04:16:42.110Z,101.35
2023-02-15T04:19:42.739Z,96.20
2023-02-15T04:22:49.757Z,112.63
2023-02-15T04:25:32.229Z,113.40
2023-02-15T04:28:20.759Z,99.53
2023-02-15T04:31:09.784Z,122.97
2023-02-15T04:33:51.922Z,118.38
2023-02-15T04:36:40.708Z,91.05
2023-02-15T04:39:22.985Z,90.32
2023-02-15T04:42:11.762Z,114.85
2023-02-15T04:45:07.551Z,100.07
2023-02-15T04:47:56.801Z,93.10
2023-02-15T04:50:39.026Z,83.93
2023-02-15T04:53:27.798Z,92.05
2023-02-15T04:56:10.085Z,82.45
2023-02-15T04:58:58.795Z,73.47
2023-02-15T05:01:41.002Z,87.35
2023-02-15T05:04:29.813Z,93.25
2023-02-15T05:07:18.741Z,82.63
2023-02-15T05:10:00.999Z,67.18
2023-02-15T05:12:49.819Z,62.03
2023-02-15T05:15:39.052Z,61.20
2023-02-15T05:18:20.705Z,56.00
2023-02-15T05:21:08.975Z,59.95
2023-02-15T05:23:51.735Z,66.65
2023-02-15T05:26:59.707Z,61.67
2023-02-15T05:29:41.800Z,66.85
2023-02-15T05:32:24.231Z,60.95
2023-02-15T05:35:12.714Z,56.05
2023-02-15T05:37:55.202Z,53.85
2023-02-15T05:40:43.783Z,53.63
2023-02-15T05:43:40.737Z,55.42
2023-02-15T05:46:30.320Z,61.03
2023-02-15T05:49:12.754Z,61.17
2023-02-15T05:51:55.259Z,51.70
2023-02-15T05:54:43.759Z,55.38
2023-02-15T05:57:32.042Z,60.60
2023-02-15T06:00:14.870Z,52.60
2023-02-15T06:03:03.104Z,55.45
2023-02-15T06:05:45.831Z,48.40
2023-02-15T06:08:34.112Z,40.00
2023-02-15T06:11:16.786Z,42.90
2023-02-15T06:14:05.489Z,42.05
2023-02-15T06:16:48.783Z,45.00
2023-02-15T06:19:37.041Z,40.45
2023-02-15T06:22:19.709Z,38.22
2023-02-15T06:25:08.051Z,37.08
2023-02-15T06:27:51.758Z,39.83
2023-02-15T06:30:41.115Z,37.75
2023-02-15T06:33:22.842Z,38.95
2023-02-15T06:36:12.013Z,39.70
2023-02-15T06:38:53.834Z,36.60
2023-02-15T06:41:41.989Z,32.97
2023-02-15T06:44:36.795Z,31.10
2023-02-15T06:47:26.155Z,36.35
2023-02-15T06:50:07.782Z,32.35
2023-02-15T06:52:56.041Z,39.97
2023-02-15T06:55:38.723Z,35.95
2023-02-15T06:58:28.216Z,45.60
2023-02-15T07:01:11.172Z,35.35
2023-02-15T07:03:59.118Z,34.38
2023-02-15T07:06:42.860Z,23.08
2023-02-15T07:09:32.100Z,29.42
2023-02-15T07:12:33.789Z,25.52
2023-02-15T07:15:29.779Z,29.20
2023-02-15T07:18:12.779Z,29.70
2023-02-15T07:21:01.680Z,21.17
2023-02-15T07:23:46.071Z,23.40
2023-02-15T07:26:35.693Z,25.02
2023-02-15T07:29:18.279Z,18.95
2023-02-15T07:32:06.748Z,20.92
2023-02-15T07:34:50.153Z,22.17
2023-02-15T07:37:38.684Z,20.75
2023-02-15T07:40:21.187Z,13.52
2023-02-15T07:43:09.800Z,15.43
2023-02-15T07:45:58.064Z,16.30
2023-02-15T07:48:41.816Z,21.10
2023-02-15T07:51:30.204Z,18.27
2023-02-15T07:54:12.779Z,21.48
2023-02-15T07:57:02.184Z,18.23
2023-02-15T07:59:43.706Z,19.33
2023-02-15T08:02:32.341Z,18.60
2023-02-15T08:05:14.768Z,17.23
2023-02-15T08:07:56.943Z,21.30
2023-02-15T08:11:04.806Z,16.80
2023-02-15T08:13:58.323Z,17.52
2023-02-15T08:16:51.163Z,16.80
2023-02-15T08:19:41.156Z,22.80
2023-02-15T08:22:23.698Z,23.50
2023-02-15T08:25:13.197Z,21.67
2023-02-15T08:27:54.773Z,23.90
2023-02-15T08:30:43.118Z,19.02
2023-02-15T08:33:26.806Z,20.30
2023-02-15T08:36:19.211Z,16.02
2023-02-15T08:39:01.769Z,21.60
2023-02-15T08:41:55.168Z,20.60
2023-02-15T08:44:50.465Z,20.95
2023-02-15T08:47:39.027Z,17.30
2023-02-15T08:50:21.796Z,20.10
2023-02-15T08:53:12.816Z,18.63
2023-02-15T08:55:55.820Z,27.75
2023-02-15T08:58:45.176Z,18.10
2023-02-15T09:01:29.809Z,28.58
2023-02-15T09:04:19.046Z,24.20
2023-02-15T09:07:01.732Z,30.77
2023-02-15T09:09:50.020Z,28.80
2023-02-15T09:12:31.741Z,30.13
2023-02-15T09:15:20.142Z,26.55
2023-02-15T09:18:02.746Z,35.00
2023-02-15T09:20:53.458Z,25.02
2023-02-15T09:23:37.088Z,22.92
2023-02-15T09:26:31.030Z,25.08
2023-02-15T09:31:55.680Z,32.47
2023-02-15T09:34:44.700Z,24.35
2023-02-15T09:37:33.858Z,19.50
2023-02-15T09:40:16.760Z,22.85
2023-02-15T09:43:19.340Z,26.00
2023-02-15T09:46:49.769Z,29.80
2023-02-15T09:50:21.983Z,25.67
2023-02-15T09:53:06.768Z,35.08
2023-02-15T09:56:07.089Z,22.20
2023-02-15T09:58:57.795Z,20.48
2023-02-15T10:01:54.004Z,24.50
2023-02-15T10:04:38.906Z,18.10
2023-02-15T10:07:50.013Z,28.80
2023-02-15T10:10:44.735Z,23.95
2023-02-15T10:13:48.106Z,26.77
2023-02-15T10:17:00.855Z,26.83
2023-02-15T10:20:07.560Z,29.83
2023-02-15T10:23:01.782Z,20.95
2023-02-15T10:26:15.913Z,36.97
2023-02-15T10:28:57.823Z,37.88
2023-02-15T10:31:56.210Z,28.80
2023-02-15T10:34:48.804Z,25.00
2023-02-15T10:37:50.145Z,25.83
2023-02-15T10:40:46.684Z,23.80
2023-02-15T10:43:53.804Z,17.60
2023-02-15T10:47:27.752Z,21.08
2023-02-15T10:50:52.776Z,24.13
2023-02-15T10:53:53.021Z,23.38
2023-02-15T10:56:56.772Z,18.02
2023-02-15T11:02:50.784Z,17.13
2023-02-15T11:06:02.028Z,22.42
2023-02-15T11:09:04.702Z,17.05
2023-02-15T11:11:49.064Z,21.38
2023-02-15T11:15:12.762Z,22.20
2023-02-15T11:18:05.110Z,20.42
2023-02-15T11:21:18.717Z,14.52
2023-02-15T11:24:01.038Z,23.65
2023-02-15T11:27:13.782Z,18.70
2023-02-15T11:30:20.353Z,14.82
2023-02-15T11:33:13.826Z,18.58
2023-02-15T11:36:08.016Z,24.02
2023-02-15T11:39:01.698Z,28.85
2023-02-15T11:41:53.231Z,21.83
2023-02-15T11:44:51.148Z,21.83
2023-02-15T11:47:32.980Z,18.58
2023-02-15T11:50:30.723Z,20.55
2023-02-15T11:53:32.258Z,24.25
2023-02-15T11:56:25.862Z,18.92
2023-02-15T11:59:19.959Z,17.48
2023-02-15T12:02:08.690Z,21.40
2023-02-15T12:04:56.073Z,22.02
2023-02-15T12:08:12.743Z,16.25
2023-02-15T12:11:33.963Z,23.42
2023-02-15T12:14:26.233Z,19.05
2023-02-15T12:17:09.245Z,18.27
2023-02-15T12:20:00.728Z,24.63
2023-02-15T12:22:52.737Z,19.13
2023-02-15T12:25:46.009Z,27.45
2023-02-15T12:28:47.872Z,38.30
2023-02-15T12:31:51.143Z,25.58
2023-02-15T12:34:35.667Z,26.73
2023-02-15T12:37:32.773Z,40.30
2023-02-15T12:40:34.179Z,25.30
2023-02-15T12:43:46.805Z,28.83
2023-02-15T12:46:38.903Z,25.63
2023-02-15T12:49:29.782Z,26.50
2023-02-15T12:52:22.135Z,26.88
2023-02-15T12:55:10.753Z,23.52
2023-02-15T12:58:27.221Z,25.67
2023-02-15T13:01:19.795Z,22.70
2023-02-15T13:04:14.003Z,23.17
2023-02-15T13:07:00.727Z,18.48
2023-02-15T13:09:43.212Z,22.73
2023-02-15T13:12:38.731Z,29.35
2023-02-15T13:15:45.853Z,32.00
2023-02-15T13:18:42.227Z,22.80
2023-02-15T13:21:40.697Z,27.23
2023-02-15T13:24:42.227Z,33.47
2023-02-15T13:27:36.821Z,33.53
2023-02-15T13:30:43.705Z,31.88
2023-02-15T13:33:36.822Z,52.55
2023-02-15T13:36:28.061Z,52.80
2023-02-15T13:39:39.684Z,66.55
2023-02-15T13:42:50.167Z,66.38
2023-02-15T13:45:48.731Z,73.80
2023-02-15T13:48:57.986Z,53.42
2023-02-15T13:52:02.792Z,53.55
2023-02-15T13:54:54.183Z,49.47
2023-02-15T13:57:47.827Z,48.65
2023-02-15T14:00:46.254Z,60.10
2023-02-15T14:04:02.864Z,57.70
2023-02-15T14:07:12.089Z,53.85
2023-02-15T14:10:03.695Z,50.65
2023-02-15T14:13:17.238Z,44.65
2023-02-15T14:16:12.846Z,47.67
2023-02-15T14:19:18.060Z,53.40
2023-02-15T14:22:16.796Z,52.42
2023-02-15T14:25:23.709Z,56.20
2023-02-15T14:28:28.919Z,79.55
2023-02-15T14:31:21.857Z,70.45
2023-02-15T14:34:08.588Z,56.70
2023-02-15T14:37:00.723Z,52.28
2023-02-15T14:40:10.650Z,52.45
2023-02-15T14:43:37.768Z,49.60
2023-02-15T14:47:02.021Z,51.78
2023-02-15T14:49:48.771Z,46.53
2023-02-15T14:52:38.106Z,46.83
2023-02-15T14:55:46.727Z,52.50
2023-02-15T14:58:29.042Z,44.47
2023-02-15T15:01:26.808Z,59.03
2023-02-15T15:04:22.036Z,55.47
2023-02-15T15:07:09.082Z,56.42
2023-02-15T15:10:32.197Z,48.40
2023-02-15T15:13:44.795Z,46.38
2023-02-15T15:16:32.320Z,53.60
2023-02-15T15:19:25.756Z,47.95
2023-02-15T15:22:13.981Z,55.17
2023-02-15T15:25:02.736Z,59.63
2023-02-15T15:27:56.110Z,53.40
2023-02-15T15:30:48.838Z,49.20
2023-02-15T15:34:12.437Z,48.97
2023-02-15T15:37:30.792Z,55.03
2023-02-15T15:40:41.388Z,65.00
2023-02-15T15:43:49.873Z,65.95
2023-02-15T15:46:44.072Z,59.40
2023-02-15T15:52:28.131Z,59.75
2023-02-15T15:55:23.698Z,67.57
2023-02-15T15:58:09.470Z,54.13
2023-02-15T16:01:04.755Z,62.05
2023-02-15T16:04:02.121Z,65.80
2023-02-15T16:06:46.677Z,75.72
2023-02-15T16:09:37.066Z,73.32
2023-02-15T16:12:26.838Z,68.35
2023-02-15T16:15:33.084Z,74.45
2023-02-15T16:18:15.729Z,67.07
2023-02-15T16:21:10.046Z,60.00
2023-02-15T16:24:03.746Z,64.50
2023-02-15T16:27:00.700Z,74.22
2023-02-15T16:29:49.788Z,54.88
2023-02-15T16:32:40.902Z,69.30
2023-02-15T16:35:28.168Z,61.22
2023-02-15T16:38:20.885Z,62.00
2023-02-15T16:41:06.130Z,61.72
2023-02-15T16:43:57.723Z,69.90
2023-02-15T16:46:57.647Z,79.78
2023-02-15T16:49:47.805Z,77.07
2023-02-15T16:52:34.141Z,62.13
2023-02-15T16:55:37.913Z,65.35
2023-02-15T16:58:26.235Z,65.85
2023-02-15T17:01:17.781Z,70.20
2023-02-15T17:04:19.039Z,65.22
2023-02-15T17:07:14.745Z,68.03
2023-02-15T17:10:04.960Z,64.07
2023-02-15T17:13:06.711Z,58.50
2023-02-15T17:16:13.114Z,69.32
2023-02-15T17:19:02.743Z,63.53
2023-02-15T17:21:52.245Z,75.55
2023-02-15T17:24:45.710Z,70.00
2023-02-15T17:27:31.200Z,65.47
2023-02-15T17:30:29.805Z,65.10
2023-02-15T17:33:12.985Z,74.07
2023-02-15T17:36:20.768Z,68.28
2023-02-15T17:39:06.062Z,76.82
2023-02-15T17:41:55.657Z,66.43
2023-02-15T17:44:37.998Z,69.65
2023-02-15T17:47:38.921Z,67.60
2023-02-15T17:50:34.023Z,59.17
2023-02-15T17:53:17.767Z,63.58
2023-02-15T17:56:00.088Z,85.10
2023-02-15T17:58:49.860Z,84.53
2023-02-15T18:01:57.392Z,70.47
2023-02-15T18:05:02.746Z,69.25
2023-02-15T18:08:03.240Z,72.78
2023-02-15T18:11:09.769Z,80.43
2023-02-15T18:14:02.483Z,67.80
2023-02-15T18:16:50.801Z,71.47
2023-02-15T18:19:48.184Z,72.97
2023-02-15T18:22:31.145Z,65.40
2023-02-15T18:25:22.038Z,76.28
2023-02-15T18:28:10.711Z,83.93
2023-02-15T18:30:59.762Z,80.03
2023-02-15T18:33:46.180Z,80.82
2023-02-15T18:36:41.759Z,74.85
2023-02-15T18:39:36.143Z,83.90
2023-02-15T18:42:36.753Z,69.95
2023-02-15T18:45:44.748Z,84.43
2023-02-15T18:48:33.014Z,69.82
2023-02-15T18:51:25.676Z,84.32
2023-02-15T18:54:18.370Z,75.53
2023-02-15T18:57:12.712Z,69.90
2023-02-15T19:00:02.246Z,87.60
2023-02-15T19:02:44.843Z,76.63
2023-02-15T19:05:29.403Z,81.93
2023-02-15T19:08:19.826Z,70.93
2023-02-15T19:11:08.979Z,69.00
2023-02-15T19:13:51.781Z,78.78
2023-02-15T19:16:43.061Z,71.60
2023-02-15T19:19:25.736Z,63.65
2023-02-15T19:22:18.022Z,72.88
2023-02-15T19:25:02.146Z,90.88
2023-02-15T19:27:50.129Z,64.10
2023-02-15T19:30:40.057Z,68.55
2023-02-15T19:33:29.086Z,63.65
2023-02-15T19:36:11.902Z,67.97
2023-02-15T19:39:02.006Z,64.28
2023-02-15T19:41:44.737Z,70.13
2023-02-15T19:44:32.982Z,85.00
2023-02-15T19:47:21.627Z,71.50
2023-02-15T19:50:04.957Z,71.95
2023-02-15T19:52:54.710Z,80.35
2023-02-15T19:55:40.042Z,80.68
2023-02-15T19:58:29.739Z,72.53
2023-02-15T20:01:12.230Z,66.43
2023-02-15T20:04:00.723Z,77.30
2023-02-15T20:06:43.017Z,70.38
2023-02-15T20:09:34.766Z,71.25
2023-02-15T20:12:33.034Z,64.97
2023-02-15T20:15:34.786Z,61.35
2023-02-15T20:18:19.246Z,75.72
2023-02-15T20:21:10.669Z,69.30
2023-02-15T20:23:52.977Z,66.10
2023-02-15T20:26:41.840Z,72.97
2023-02-15T20:29:25.979Z,78.38
2023-02-15T20:32:14.761Z,75.60
2023-02-15T20:34:57.001Z,61.92
2023-02-15T20:37:45.750Z,71.93
2023-02-15T20:40:32.114Z,64.45
2023-02-15T20:43:23.694Z,71.18
2023-02-15T20:46:13.012Z,67.65
2023-02-15T20:48:55.688Z,69.55
2023-02-15T20:51:45.583Z,78.45
2023-02-15T20:54:31.708Z,77.22
2023-02-15T20:57:20.908Z,75.03
2023-02-15T21:00:03.812Z,69.47
2023-02-15T21:03:01.979Z,66.40
2023-02-15T21:05:43.695Z,61.47
2023-02-15T21:08:34.198Z,61.63
2023-02-15T21:11:28.818Z,77.32
2023-02-15T21:14:28.135Z,71.50
2023-02-15T21:17:10.646Z,71.38
2023-02-15T21:20:05.666Z,74.07
2023-02-15T21:22:55.010Z,76.85
2023-02-15T21:25:45.661Z,82.95
2023-02-15T21:28:36.021Z,70.70
2023-02-15T21:31:26.801Z,78.80
2023-02-15T21:34:15.063Z,77.45
2023-02-15T21:36:58.664Z,91.55
2023-02-15T21:39:47.697Z,77.53
2023-02-15T21:42:48.474Z,74.68
2023-02-15T21:45:55.734Z,81.10
2023-02-15T21:48:38.025Z,77.75
2023-02-15T21:51:46.561Z,91.75
2023-02-15T21:54:35.644Z,88.93
2023-02-15T21:57:21.085Z,82.25
2023-02-15T22:00:10.717Z,90.65
2023-02-15T22:03:04.947Z,92.95
2023-02-15T22:05:47.633Z,92.72
2023-02-15T22:08:36.718Z,107.57
2023-02-15T22:11:24.948Z,102.45
2023-02-15T22:14:13.603Z,97.10
2023-02-15T22:16:55.951Z,94.07
2023-02-15T22:19:44.663Z,95.63
2023-02-15T22:22:27.254Z,99.82
2023-02-15T22:25:15.718Z,93.13
2023-02-15T22:27:59.905Z,97.45
2023-02-15T22:30:48.654Z,105.25
2023-02-15T22:33:48.642Z,89.07
2023-02-15T22:36:38.933Z,96.70
2023-02-15T22:39:20.709Z,91.40
2023-02-15T22:42:02.886Z,105.82
2023-02-15T22:44:51.649Z,92.28
2023-02-15T22:47:37.094Z,93.95
2023-02-15T22:50:41.726Z,97.45
2023-02-15T22:53:30.970Z,104.60
2023-02-15T22:56:16.719Z,105.05
2023-02-15T22:59:03.627Z,96.32
2023-02-15T23:01:53.653Z,96.18
2023-02-15T23:04:41.949Z,98.57
2023-02-15T23:07:26.610Z,105.60
2023-02-15T23:10:25.058Z,91.38
2023-02-15T23:13:26.651Z,94.78
2023-02-15T23:16:21.067Z,93.75
2023-02-15T23:19:03.771Z,106.78
2023-02-15T23:21:46.034Z,100.43
2023-02-15T23:24:36.637Z,89.15
2023-02-15T23:27:45.487Z,104.75
2023-02-15T23:30:28.699Z,109.90
2023-02-15T23:33:19.930Z,104.00
2023-02-15T23:36:02.646Z,105.13
2023-02-15T23:38:44.855Z,105.88
2023-02-15T23:41:38.637Z,105.53
2023-02-15T23:44:21.260Z,98.63
2023-02-15T23:47:09.707Z,98.70
2023-02-15T23:49:57.923Z,108.65
2023-02-15T23:52:39.644Z,102.18
2023-02-15T23:55:28.961Z,110.97
2023-02-15T23:58:19.681Z,112.38
